This is the latest recevied weather packets stored in our database for station/object IA5ITY-13. If no packets are shown the sender has not sent any weather packets the latest 1 day(s).
| Time | Temp. | Humidity | Pressure | Rain* | Wind** | Luminosity | Snow |
|---|---|---|---|---|---|---|---|
| 1777985413 | 22.22° C | 84% | 1011.4 hPa | 0 mm | 0 m/s | - | - |
| 1777985113 | 23.89° C | 77% | 1011.4 hPa | 0 mm | 0 m/s | - | - |
| 1777984813 | 22.78° C | 84% | 1011.4 hPa | 0 mm | 0.45 m/s, 138° | - | - |
| 1777984509 | 22.22° C | 90% | 1011.6 hPa | 0 mm | 0 m/s | - | - |
| 1777984224 | 22.78° C | 85% | 1011.5 hPa | 0 mm | 1.79 m/s, 206° | - | - |
| 1777983909 | 22.78° C | 85% | 1011.4 hPa | 0 mm | 2.68 m/s, 166° | - | - |
| 1777983612 | 22.78° C | 78% | 1011.5 hPa | 0 mm | 0 m/s | - | - |
| 1777983313 | 22.78° C | 85% | 1011.5 hPa | 0 mm | 0 m/s | - | - |
| 1777983015 | 22.22° C | 83% | 1011.7 hPa | 0 mm | 0 m/s | - | - |
| 1777982709 | 22.78° C | 79% | 1011.6 hPa | 0 mm | 0 m/s | - | - |
| 1777982433 | 25° C | 67% | 1011.6 hPa | 0 mm | 0 m/s | - | - |
| 1777982109 | 23.89° C | 77% | 1011.7 hPa | 0 mm | 0 m/s | - | - |
| 1777981813 | 22.78° C | 77% | 1011.7 hPa | 0 mm | 0.89 m/s, 24° | - | - |
| 1777981513 | 23.89° C | 76% | 1011.8 hPa | 0 mm | 0 m/s | - | - |
| 1777981213 | 23.89° C | 76% | 1011.7 hPa | 0 mm | 1.79 m/s, 90° | - | - |
| 1777980909 | 22.78° C | 81% | 1011.9 hPa | 0 mm | 0 m/s | - | - |
| 1777980623 | 22.78° C | 78% | 1011.9 hPa | 0 mm | 0.89 m/s, 121° | - | - |
| 1777980309 | 23.89° C | 72% | 1011.8 hPa | 0 mm | 0 m/s | - | - |
| 1777980013 | 23.89° C | 75% | 1011.8 hPa | 0 mm | 0.89 m/s, 129° | - | - |
| 1777979712 | 25° C | 72% | 1011.8 hPa | 0 mm | 0 m/s | - | - |
| 1777979413 | 23.89° C | 77% | 1011.8 hPa | 0 mm | 0 m/s | - | - |
| 1777979109 | 22.22° C | 83% | 1011.9 hPa | 0 mm | 0.45 m/s, 20° | - | - |
| 1777978832 | 22.22° C | 87% | 1011.9 hPa | 0 mm | 0.45 m/s, 56° | - | - |
| 1777978509 | 22.78° C | 80% | 1011.9 hPa | 0 mm | 0 m/s | - | - |
| 1777978212 | 22.22° C | 82% | 1011.8 hPa | 0 mm | 0.89 m/s, 44° | - | - |
* Rain latest hour (hover to see other rain measurements)
** Current wind speed in m/s (hover to see current wind gust speed)